createdAt,value
2018-02-06T00:01:14.202Z,7.55
2018-02-06T00:03:42.454Z,7.91
2018-02-06T00:06:10.349Z,8.08
2018-02-06T00:08:38.276Z,8.28
2018-02-06T00:11:06.191Z,8.19
2018-02-06T00:13:34.158Z,7.98
2018-02-06T00:16:02.140Z,8.19
2018-02-06T00:18:30.010Z,8.35
2018-02-06T00:20:57.974Z,8.57
2018-02-06T00:23:25.915Z,8.30
2018-02-06T00:25:53.759Z,8.14
2018-02-06T00:28:21.695Z,7.80
2018-02-06T00:30:49.662Z,6.90
2018-02-06T00:33:17.646Z,6.43
2018-02-06T00:35:46.229Z,6.59
2018-02-06T00:38:14.731Z,6.48
2018-02-06T00:40:43.319Z,6.99
2018-02-06T00:43:11.772Z,7.38
2018-02-06T00:45:40.274Z,7.53
2018-02-06T00:48:08.959Z,7.89
2018-02-06T00:50:36.882Z,7.94
2018-02-06T00:53:04.866Z,7.58
2018-02-06T00:55:32.808Z,7.51
2018-02-06T00:58:00.779Z,6.72
2018-02-06T01:00:28.746Z,6.20
2018-02-06T01:02:56.660Z,5.88
2018-02-06T01:05:24.838Z,6.07
2018-02-06T01:07:52.777Z,6.24
2018-02-06T01:10:20.709Z,6.34
2018-02-06T01:12:48.621Z,6.42
2018-02-06T01:15:16.513Z,6.75
2018-02-06T01:17:44.452Z,6.78
2018-02-06T01:20:12.477Z,6.18
2018-02-06T01:22:40.458Z,5.78
2018-02-06T01:25:08.469Z,5.32
2018-02-06T01:27:36.470Z,4.89
2018-02-06T01:30:04.425Z,4.91
2018-02-06T01:32:32.385Z,4.84
2018-02-06T01:35:00.326Z,5.03
2018-02-06T01:37:28.257Z,5.01
2018-02-06T01:39:56.204Z,5.49
2018-02-06T01:42:24.098Z,5.54
2018-02-06T01:44:52.037Z,6.12
2018-02-06T01:47:20.005Z,6.75
2018-02-06T01:50:00.462Z,6.74
2018-02-06T01:52:28.362Z,6.67
2018-02-06T01:54:56.299Z,6.81
2018-02-06T01:57:24.264Z,6.73
2018-02-06T01:59:52.175Z,6.24
2018-02-06T02:02:20.172Z,6.35
2018-02-06T02:04:48.126Z,6.17
2018-02-06T02:07:16.950Z,5.60
2018-02-06T02:09:45.534Z,6.26
2018-02-06T02:12:13.821Z,6.72
2018-02-06T02:14:42.607Z,7.14
2018-02-06T02:17:11.282Z,7.29
2018-02-06T02:19:39.223Z,7.41
2018-02-06T02:22:07.158Z,7.18
2018-02-06T02:24:35.021Z,6.68
2018-02-06T02:27:03.002Z,6.91
2018-02-06T02:29:30.902Z,6.63
2018-02-06T02:31:58.973Z,6.38
2018-02-06T02:34:27.469Z,6.92
2018-02-06T02:36:55.950Z,7.02
2018-02-06T02:39:24.831Z,7.09
2018-02-06T04:40:28.510Z,6.46
2018-02-06T04:42:56.450Z,5.98
2018-02-06T04:45:24.518Z,6.20
2018-02-06T04:47:52.477Z,5.99
2018-02-06T04:50:20.466Z,6.24
2018-02-06T04:52:48.427Z,6.51
2018-02-06T04:55:16.780Z,6.79
2018-02-06T04:57:44.722Z,6.68
2018-02-06T05:00:12.697Z,6.48
2018-02-06T05:02:40.703Z,6.35
2018-02-06T05:05:09.420Z,6.49
2018-02-06T05:07:37.799Z,6.41
2018-02-06T05:10:06.481Z,6.15
2018-02-06T05:12:35.375Z,5.97
2018-02-06T05:15:03.956Z,6.21
2018-02-06T05:17:32.235Z,6.15
2018-02-06T05:20:00.819Z,6.35
2018-02-06T05:22:29.113Z,6.63
2018-02-06T05:24:57.142Z,6.59
2018-02-06T05:27:25.670Z,6.65
2018-02-06T05:29:54.329Z,6.56
2018-02-06T05:32:22.927Z,6.66
2018-02-06T05:34:51.306Z,6.75
2018-02-06T05:37:19.769Z,6.65
2018-02-06T05:39:48.662Z,6.63
2018-02-06T05:42:17.059Z,7.10
2018-02-06T05:44:44.974Z,7.32
2018-02-06T05:47:13.486Z,7.38
2018-02-06T05:49:41.862Z,7.68
2018-02-06T05:52:10.250Z,7.69
2018-02-06T05:54:38.643Z,7.19
2018-02-06T05:57:07.817Z,7.04
2018-02-06T05:59:36.193Z,7.30
2018-02-06T06:02:04.993Z,6.95
2018-02-06T06:04:33.672Z,6.97
2018-02-06T06:07:02.051Z,7.38
2018-02-06T06:09:30.434Z,7.79
2018-02-06T06:11:59.015Z,7.27
2018-02-06T06:14:27.495Z,7.75
2018-02-06T06:16:56.075Z,7.31
2018-02-06T06:19:24.432Z,7.49
2018-02-06T06:21:53.034Z,7.44
2018-02-06T06:24:21.927Z,7.41
2018-02-06T06:26:50.608Z,6.94
2018-02-06T06:29:19.196Z,7.14
2018-02-06T06:31:47.874Z,7.24
2018-02-06T06:34:16.574Z,6.96
2018-02-06T06:36:45.051Z,6.60
2018-02-06T06:39:13.400Z,7.02
2018-02-06T06:41:42.741Z,7.67
2018-02-06T06:44:11.202Z,7.26
2018-02-06T06:46:39.883Z,7.35
2018-02-06T06:49:07.802Z,7.27
2018-02-06T06:51:35.739Z,7.26
2018-02-06T06:54:03.711Z,7.62
2018-02-06T06:56:33.236Z,8.00
2018-02-06T06:59:01.514Z,7.93
2018-02-06T07:01:29.501Z,8.11
2018-02-06T07:03:57.493Z,7.85
2018-02-06T07:06:25.531Z,7.42
2018-02-06T07:08:55.392Z,7.02
2018-02-06T07:11:23.806Z,7.46
2018-02-06T07:13:51.786Z,7.47
2018-02-06T07:16:19.918Z,7.40
2018-02-06T07:18:49.030Z,8.02
2018-02-06T07:21:18.042Z,8.15
2018-02-06T07:23:58.781Z,7.82
2018-02-06T07:26:26.695Z,7.58
2018-02-06T07:28:54.654Z,7.56
2018-02-06T07:31:22.961Z,7.75
2018-02-06T07:33:51.018Z,7.24
2018-02-06T07:36:19.051Z,7.64
2018-02-06T07:38:46.939Z,8.02
2018-02-06T07:41:14.926Z,8.50
2018-02-06T07:43:42.897Z,8.05
2018-02-06T07:46:10.891Z,8.05
2018-02-06T07:48:38.903Z,8.09
2018-02-06T07:51:06.909Z,8.14
2018-02-06T07:53:34.875Z,7.95
2018-02-06T07:56:02.852Z,7.38
2018-02-06T07:58:30.793Z,7.32
2018-02-06T08:00:59.062Z,8.06
2018-02-06T08:03:26.994Z,8.61
2018-02-06T08:05:54.953Z,9.16
2018-02-06T08:08:23.064Z,9.55
2018-02-06T08:10:51.023Z,9.42
2018-02-06T08:13:20.039Z,8.21
2018-02-06T08:15:47.956Z,8.34
2018-02-06T08:18:16.437Z,8.55
2018-02-06T08:20:44.487Z,9.20
2018-02-06T08:23:12.462Z,9.40
2018-02-06T08:25:40.382Z,9.34
2018-02-06T08:28:08.338Z,9.62
2018-02-06T08:30:36.352Z,9.97
2018-02-06T08:33:04.496Z,9.73
2018-02-06T08:35:32.525Z,9.23
2018-02-06T08:38:00.510Z,9.84
2018-02-06T08:40:28.485Z,10.03
2018-02-06T08:42:56.528Z,10.16
2018-02-06T08:45:24.482Z,10.53
2018-02-06T08:47:52.447Z,9.36
2018-02-06T08:50:20.543Z,9.18
2018-02-06T08:52:48.522Z,9.67
2018-02-06T08:55:16.524Z,9.13
2018-02-06T08:57:44.471Z,8.63
2018-02-06T09:00:12.374Z,9.19
2018-02-06T09:02:40.653Z,8.85
2018-02-06T09:05:08.628Z,9.16
2018-02-06T09:07:37.010Z,10.16
2018-02-06T09:10:04.930Z,10.98
2018-02-06T09:12:32.933Z,9.85
2018-02-06T09:15:01.974Z,10.76
2018-02-06T09:17:29.984Z,11.31
2018-02-06T09:19:58.280Z,11.54
2018-02-06T09:22:26.256Z,11.10
2018-02-06T09:24:54.746Z,11.02
2018-02-06T09:27:23.023Z,9.75
2018-02-06T09:29:51.606Z,9.88
2018-02-06T09:32:19.539Z,9.85
2018-02-06T09:34:47.511Z,10.28
2018-02-06T09:37:15.484Z,10.44
2018-02-06T09:39:43.579Z,10.73
2018-02-06T09:42:11.557Z,11.32
2018-02-06T09:44:39.929Z,11.03
2018-02-06T09:47:08.390Z,9.91
2018-02-06T09:49:36.891Z,9.78
2018-02-06T09:52:05.272Z,10.05
2018-02-06T09:54:33.502Z,10.46
2018-02-06T09:57:02.230Z,10.81
2018-02-06T09:59:30.595Z,10.84
2018-02-06T10:01:59.313Z,10.96
2018-02-06T10:04:28.188Z,10.35
2018-02-06T10:06:57.069Z,10.93
2018-02-06T10:09:25.658Z,10.77
2018-02-06T10:11:54.220Z,11.48
2018-02-06T10:14:22.239Z,11.96
2018-02-06T10:16:50.199Z,11.53
2018-02-06T10:19:18.655Z,12.07
2018-02-06T10:21:47.141Z,12.53
2018-02-06T10:24:15.152Z,13.29
2018-02-06T10:26:43.089Z,14.03
2018-02-06T10:29:11.072Z,15.18
2018-02-06T10:31:38.993Z,15.53
2018-02-06T10:34:06.989Z,14.77
2018-02-06T10:36:34.962Z,14.75
2018-02-06T10:39:03.733Z,13.56
2018-02-06T10:41:31.919Z,13.17
2018-02-06T10:43:59.931Z,13.28
2018-02-06T10:46:27.839Z,14.40
2018-02-06T10:48:55.792Z,14.92
2018-02-06T10:51:23.822Z,14.91
2018-02-06T10:53:52.265Z,14.76
2018-02-06T10:56:20.562Z,14.64
2018-02-06T10:58:49.017Z,14.68
2018-02-06T11:01:17.026Z,13.34
2018-02-06T11:03:44.953Z,12.98
2018-02-06T11:06:13.274Z,12.71
2018-02-06T11:08:41.247Z,12.76
2018-02-06T11:11:09.237Z,12.21
2018-02-06T11:13:37.194Z,13.39
2018-02-06T11:16:05.224Z,15.09
2018-02-06T11:18:33.173Z,15.14
2018-02-06T11:21:01.189Z,15.81
2018-02-06T11:23:29.523Z,15.90
2018-02-06T11:25:57.515Z,17.22
2018-02-06T11:28:25.453Z,17.04
2018-02-06T11:30:53.365Z,15.41
2018-02-06T11:33:21.705Z,15.20
2018-02-06T11:35:50.035Z,14.64
2018-02-06T11:38:18.662Z,15.00
2018-02-06T11:40:47.226Z,13.72
2018-02-06T11:43:15.490Z,13.69
2018-02-06T11:45:44.515Z,14.21
2018-02-06T11:48:13.022Z,13.46
2018-02-06T11:50:41.406Z,13.93
2018-02-06T11:53:09.329Z,14.68
2018-02-06T11:55:37.247Z,14.75
2018-02-06T11:58:05.168Z,14.90
2018-02-06T12:00:33.141Z,15.82
2018-02-06T12:03:01.130Z,15.53
2018-02-06T12:05:29.029Z,14.78
2018-02-06T12:07:57.235Z,14.29
2018-02-06T12:10:25.541Z,13.53
2018-02-06T12:12:54.111Z,13.36
2018-02-06T12:15:22.694Z,13.22
2018-02-06T12:17:50.899Z,13.13
2018-02-06T12:20:19.573Z,13.17
2018-02-06T12:22:48.445Z,14.07
2018-02-06T12:25:16.827Z,13.82
2018-02-06T12:27:44.813Z,14.36
2018-02-06T12:30:13.330Z,14.56
2018-02-06T12:32:41.954Z,13.80
2018-02-06T12:35:10.449Z,13.67
2018-02-06T12:37:38.454Z,13.45
2018-02-06T12:40:06.386Z,13.42
2018-02-06T12:42:34.293Z,13.30
2018-02-06T12:45:02.303Z,13.36
2018-02-06T12:47:30.190Z,13.43
2018-02-06T12:49:58.238Z,14.03
2018-02-06T12:52:26.197Z,13.99
2018-02-06T12:54:54.139Z,13.50
2018-02-06T12:57:22.074Z,13.38
2018-02-06T12:59:50.047Z,13.89
2018-02-06T13:02:17.986Z,13.27
2018-02-06T13:04:47.135Z,13.38
2018-02-06T13:07:15.089Z,13.47
2018-02-06T13:09:43.093Z,13.73
2018-02-06T13:12:11.162Z,13.44
2018-02-06T13:14:38.962Z,12.98
2018-02-06T13:17:06.979Z,12.91
2018-02-06T13:19:34.913Z,12.89
2018-02-06T13:22:02.895Z,13.46
2018-02-06T13:24:30.834Z,13.43
2018-02-06T13:26:59.218Z,13.04
2018-02-06T13:29:27.181Z,13.10
2018-02-06T13:31:55.153Z,13.12
2018-02-06T13:34:23.183Z,13.28
2018-02-06T13:36:51.099Z,12.78
2018-02-06T13:39:19.103Z,12.85
2018-02-06T13:41:47.038Z,12.98
2018-02-06T13:44:14.997Z,12.36
2018-02-06T13:46:42.990Z,12.76
2018-02-06T13:49:10.930Z,12.05
2018-02-06T13:51:38.893Z,11.98
2018-02-06T13:54:06.837Z,12.38
2018-02-06T13:56:34.837Z,12.80
2018-02-06T13:59:02.770Z,13.21
2018-02-06T14:01:30.739Z,13.54
2018-02-06T14:03:58.721Z,13.71
2018-02-06T14:06:26.698Z,13.32
2018-02-06T14:08:54.682Z,13.49
2018-02-06T14:11:22.626Z,13.56
2018-02-06T14:13:50.558Z,13.74
2018-02-06T14:16:18.554Z,13.95
2018-02-06T14:18:46.507Z,14.06
2018-02-06T14:21:14.466Z,13.93
2018-02-06T14:23:42.426Z,14.01
2018-02-06T14:26:10.380Z,14.16
2018-02-06T14:28:38.647Z,14.40
2018-02-06T14:31:06.578Z,14.41
2018-02-06T14:33:34.519Z,14.81
2018-02-06T14:36:02.475Z,15.54
2018-02-06T14:38:30.526Z,15.99
2018-02-06T14:40:58.425Z,16.11
2018-02-06T14:43:26.495Z,16.02
2018-02-06T14:45:54.472Z,15.18
2018-02-06T14:48:22.413Z,15.11
2018-02-06T14:50:50.525Z,14.56
2018-02-06T14:53:18.423Z,13.93
2018-02-06T14:55:46.394Z,13.38
2018-02-06T14:58:14.359Z,13.78
2018-02-06T15:00:42.296Z,13.88
2018-02-06T15:03:10.139Z,13.86
2018-02-06T15:05:38.062Z,13.69
2018-02-06T15:08:06.026Z,13.26
2018-02-06T15:10:33.985Z,12.95
2018-02-06T15:13:02.056Z,12.88
2018-02-06T15:15:30.463Z,13.01
2018-02-06T15:17:58.813Z,12.71
2018-02-06T15:20:27.300Z,12.66
2018-02-06T15:22:55.566Z,12.63
2018-02-06T15:25:24.051Z,12.47
2018-02-06T15:27:52.509Z,12.33
2018-02-06T15:30:21.321Z,12.22
2018-02-06T15:32:49.698Z,12.27
2018-02-06T15:35:18.180Z,12.15
2018-02-06T15:37:46.495Z,11.92
2018-02-06T15:40:15.342Z,11.88
2018-02-06T15:42:43.618Z,11.68
2018-02-06T15:45:12.111Z,11.57
2018-02-06T15:47:40.578Z,11.66
2018-02-06T15:50:08.981Z,11.44
2018-02-06T15:52:37.334Z,11.46
2018-02-06T15:55:05.723Z,10.95
2018-02-06T15:57:34.403Z,9.72
2018-02-06T16:00:02.779Z,10.48
2018-02-06T16:02:30.950Z,10.23
2018-02-06T16:04:59.530Z,10.44
2018-02-06T16:07:27.806Z,10.75
2018-02-06T16:09:56.798Z,10.78
2018-02-06T16:12:25.588Z,10.88
2018-02-06T16:14:54.378Z,10.86
2018-02-06T16:17:22.670Z,10.90
2018-02-06T16:19:51.341Z,10.48
2018-02-06T16:22:19.815Z,9.09
2018-02-06T16:24:47.989Z,8.58
2018-02-06T16:27:16.367Z,8.62
2018-02-06T16:29:44.641Z,8.51
2018-02-06T16:32:13.339Z,9.00
2018-02-06T16:34:41.914Z,8.79
2018-02-06T16:37:10.297Z,8.22
2018-02-06T16:39:38.668Z,7.95
2018-02-06T16:42:07.350Z,8.06
2018-02-06T16:44:35.838Z,7.91
2018-02-06T16:47:04.116Z,7.53
2018-02-06T16:49:32.426Z,7.45
2018-02-06T16:52:00.971Z,7.80
2018-02-06T16:54:29.649Z,8.27
2018-02-06T16:56:57.874Z,8.19
2018-02-06T16:59:26.511Z,8.29
2018-02-06T17:01:54.959Z,8.79
2018-02-06T17:04:23.276Z,8.69
2018-02-06T17:06:51.746Z,8.99
2018-02-06T17:09:20.117Z,9.09
2018-02-06T17:11:48.710Z,9.34
2018-02-06T17:14:16.878Z,9.31
2018-02-06T17:16:45.362Z,9.10
2018-02-06T17:19:13.662Z,9.03
2018-02-06T17:21:42.218Z,9.03
2018-02-06T17:24:10.502Z,8.89
2018-02-06T17:26:39.081Z,9.03
2018-02-06T17:29:07.762Z,8.86
2018-02-06T17:31:36.145Z,8.13
2018-02-06T17:34:04.727Z,8.01
2018-02-06T17:36:33.493Z,8.66
2018-02-06T17:39:01.790Z,8.98
2018-02-06T17:41:30.480Z,8.21
2018-02-06T17:43:58.934Z,8.71
2018-02-06T17:46:27.234Z,8.98
2018-02-06T17:48:55.606Z,9.12
2018-02-06T17:51:24.192Z,9.01
2018-02-06T17:53:52.608Z,9.03
2018-02-06T17:56:21.130Z,9.08
2018-02-06T17:58:49.634Z,9.07
2018-02-06T18:01:18.010Z,9.13
2018-02-06T18:03:46.898Z,9.22
2018-02-06T18:06:15.077Z,8.24
2018-02-06T18:08:43.553Z,8.62
2018-02-06T18:11:11.968Z,8.77
2018-02-06T18:13:40.619Z,8.77
2018-02-06T18:16:09.100Z,8.84
2018-02-06T18:18:37.487Z,8.93
2018-02-06T18:21:06.367Z,8.93
2018-02-06T18:23:35.164Z,8.68
2018-02-06T18:26:03.638Z,7.89
2018-02-06T18:28:32.058Z,8.25
2018-02-06T18:31:00.906Z,8.46
2018-02-06T18:33:29.586Z,8.29
2018-02-06T18:35:58.170Z,8.00
2018-02-06T18:38:26.667Z,8.03
2018-02-06T18:40:55.133Z,8.05
2018-02-06T18:43:23.719Z,7.35
2018-02-06T18:45:51.997Z,6.93
2018-02-06T18:48:20.470Z,7.25
2018-02-06T18:50:49.062Z,7.38
2018-02-06T18:53:17.491Z,6.74
2018-02-06T18:55:45.810Z,7.47
2018-02-06T18:58:14.124Z,7.58
2018-02-06T19:00:42.870Z,7.49
2018-02-06T19:03:11.258Z,7.49
2018-02-06T19:05:39.959Z,7.48
2018-02-06T19:08:08.422Z,7.34
2018-02-06T19:10:37.102Z,7.11
2018-02-06T19:13:05.894Z,7.06
2018-02-06T19:15:34.379Z,6.20
2018-02-06T19:18:03.188Z,6.27
2018-02-06T19:20:31.747Z,6.32
2018-02-06T19:23:00.453Z,6.24
2018-02-06T19:25:28.905Z,6.39
2018-02-06T19:27:57.527Z,6.50
2018-02-06T19:30:25.908Z,6.11
2018-02-06T19:32:54.349Z,5.79
2018-02-06T19:35:22.910Z,5.96
2018-02-06T19:37:51.687Z,6.59
2018-02-06T19:40:20.992Z,6.91
2018-02-06T19:42:49.285Z,6.96
2018-02-06T19:45:17.984Z,6.98
2018-02-06T19:47:46.577Z,7.03
2018-02-06T19:50:15.146Z,7.08
2018-02-06T19:52:43.522Z,7.05
2018-02-06T19:55:11.898Z,7.00
2018-02-06T19:57:40.175Z,7.03
2018-02-06T20:00:08.864Z,6.32
2018-02-06T20:02:37.386Z,6.03
2018-02-06T20:05:05.618Z,6.19
2018-02-06T20:07:33.810Z,6.67
2018-02-06T20:10:02.374Z,6.84
2018-02-06T20:12:30.771Z,6.90
2018-02-06T20:14:58.969Z,6.91
2018-02-06T20:17:27.306Z,6.96
2018-02-06T20:19:55.783Z,6.33
2018-02-06T20:22:24.671Z,5.88
2018-02-06T20:24:52.926Z,5.98
2018-02-06T20:27:21.333Z,5.88
2018-02-06T20:29:49.810Z,6.16
2018-02-06T20:32:18.195Z,6.34
2018-02-06T20:34:46.870Z,6.60
2018-02-06T20:37:15.372Z,6.39
2018-02-06T20:39:44.038Z,6.59
2018-02-06T20:42:12.306Z,6.70
2018-02-06T20:44:40.793Z,6.42
2018-02-06T20:47:09.090Z,6.67
2018-02-06T20:49:37.345Z,6.74
2018-02-06T20:52:05.723Z,6.79
2018-02-06T20:54:34.405Z,6.72
2018-02-06T20:57:02.997Z,6.67
2018-02-06T20:59:31.275Z,6.68
2018-02-06T21:01:59.853Z,6.79
2018-02-06T21:04:28.022Z,6.08
2018-02-06T21:06:56.605Z,6.45
2018-02-06T21:09:25.278Z,6.69
2018-02-06T21:11:53.771Z,6.46
2018-02-06T21:14:22.351Z,5.78
2018-02-06T21:16:50.860Z,6.33
2018-02-06T21:19:19.418Z,6.59
2018-02-06T21:21:47.794Z,6.70
2018-02-06T21:24:16.275Z,6.36
2018-02-06T21:26:44.655Z,6.20
2018-02-06T21:29:13.134Z,6.15
2018-02-06T21:31:42.022Z,6.39
2018-02-06T21:34:10.484Z,6.57
2018-02-06T21:36:38.778Z,6.69
2018-02-06T21:39:07.054Z,6.60
2018-02-06T21:41:35.638Z,6.30
2018-02-06T21:44:03.865Z,6.69
2018-02-06T21:46:32.429Z,6.36
2018-02-06T21:49:00.566Z,6.29
2018-02-06T21:51:29.046Z,6.09
2018-02-06T21:53:57.218Z,6.62
2018-02-06T21:56:25.802Z,7.22
2018-02-06T21:58:54.395Z,7.57
2018-02-06T22:01:22.470Z,7.08
2018-02-06T22:03:50.941Z,6.92
2018-02-06T22:06:19.399Z,6.28
2018-02-06T22:08:48.003Z,6.38
2018-02-06T22:11:16.374Z,6.83
2018-02-06T22:13:44.862Z,7.38
2018-02-06T22:16:13.358Z,7.65
2018-02-06T22:18:41.822Z,7.35
2018-02-06T22:21:10.189Z,6.88
2018-02-06T22:23:38.578Z,6.49
2018-02-06T22:26:06.945Z,7.12
2018-02-06T22:28:35.534Z,7.38
2018-02-06T22:31:03.918Z,7.82
2018-02-06T22:33:32.190Z,7.48
2018-02-06T22:36:00.507Z,7.69
2018-02-06T22:38:29.153Z,7.95
2018-02-06T22:40:57.589Z,8.02
2018-02-06T22:43:26.318Z,8.04
2018-02-06T22:45:55.003Z,7.71
2018-02-06T22:48:23.566Z,7.92
2018-02-06T22:50:51.861Z,8.21
2018-02-06T22:53:20.342Z,8.38
2018-02-06T22:55:48.424Z,8.60
2018-02-06T22:58:17.003Z,8.57
2018-02-06T23:00:45.530Z,8.67
2018-02-06T23:03:14.059Z,8.73
2018-02-06T23:05:42.542Z,8.64
2018-02-06T23:08:10.917Z,8.92
2018-02-06T23:10:39.194Z,8.28
2018-02-06T23:13:07.685Z,8.38
2018-02-06T23:15:36.160Z,8.39
2018-02-06T23:18:04.633Z,8.59
2018-02-06T23:20:33.253Z,8.54
2018-02-06T23:23:01.808Z,8.54
2018-02-06T23:25:30.158Z,8.43
2018-02-06T23:27:58.456Z,8.27
2018-02-06T23:30:26.914Z,8.29
2018-02-06T23:32:55.210Z,8.46
2018-02-06T23:35:23.897Z,8.37
2018-02-06T23:37:52.457Z,8.33
2018-02-06T23:40:21.067Z,8.40
2018-02-06T23:42:49.447Z,8.49
2018-02-06T23:45:17.923Z,8.58
2018-02-06T23:47:46.289Z,8.68
2018-02-06T23:50:14.777Z,8.63
2018-02-06T23:52:43.070Z,8.57
2018-02-06T23:55:11.534Z,8.50
2018-02-06T23:57:39.810Z,8.45
